Time;durP1;ratioP1;P1;durP2;ratioP2;P2;SDS_P1;SDS_P2;PMS_P1;PMS_P2;Temp;Humidity;BMP_temperature;BMP_pressure;BME280_temperature;BME280_humidity;BME280_pressure;Samples;Min_cycle;Max_cycle;Signal;HPM_P1;HPM_P2
2022/01/07 00:00:16;;;;;;;14.50;3.90;;;;;;;4.13;100.00;101122.53;5074670;28;20150;-40
2022/01/07 00:02:44;;;;;;;15.07;3.42;;;;;;;4.17;100.00;101139.44;5074238;28;20051;-37
2022/01/07 00:05:14;;;;;;;15.15;4.32;;;;;;;4.17;100.00;101117.34;5074365;28;20044;-31
2022/01/07 00:07:42;;;;;;;11.95;3.72;;;;;;;4.11;100.00;101121.09;5073475;28;20051;-32
2022/01/07 00:10:14;;;;;;;12.32;3.88;;;;;;;4.12;100.00;101111.72;5073732;28;20051;-31
2022/01/07 00:12:42;;;;;;;15.37;3.90;;;;;;;4.13;100.00;101108.72;5074033;28;20044;-30
2022/01/07 00:15:10;;;;;;;15.63;4.22;;;;;;;4.14;100.00;101104.03;5073459;28;20047;-37
2022/01/07 00:17:38;;;;;;;12.90;3.80;;;;;;;4.18;100.00;101096.09;5074474;28;20037;-31
2022/01/07 00:20:09;;;;;;;15.95;4.32;;;;;;;4.21;100.00;101093.63;5074279;28;20059;-32
2022/01/07 00:22:38;;;;;;;14.85;3.80;;;;;;;4.21;100.00;101106.63;5072341;28;20212;-34
2022/01/07 00:25:08;;;;;;;14.90;4.13;;;;;;;4.21;100.00;101096.41;5073733;28;20052;-34
2022/01/07 00:27:38;;;;;;;12.70;3.40;;;;;;;4.20;100.00;101094.72;5073944;28;20090;-35
2022/01/07 00:30:08;;;;;;;15.18;3.40;;;;;;;4.18;100.00;101072.06;5072271;28;20066;-31
2022/01/07 00:32:36;;;;;;;14.50;3.75;;;;;;;4.21;100.00;101085.34;5074195;28;20052;-35
2022/01/07 00:35:05;;;;;;;17.95;4.22;;;;;;;4.22;100.00;101103.59;5073464;28;20075;-34
2022/01/07 00:37:33;;;;;;;20.88;4.97;;;;;;;4.24;100.00;101079.34;5073364;28;20079;-34
2022/01/07 00:40:00;;;;;;;21.15;4.28;;;;;;;4.27;100.00;101075.22;5073641;28;20501;-35
2022/01/07 00:42:28;;;;;;;15.32;4.20;;;;;;;4.29;100.00;101073.06;5073952;28;20059;-37
2022/01/07 00:44:57;;;;;;;15.48;4.22;;;;;;;4.30;100.00;101067.28;5072875;28;20056;-34
2022/01/07 00:47:25;;;;;;;15.43;3.63;;;;;;;4.29;100.00;101078.59;5073468;28;20063;-28
2022/01/07 00:49:53;;;;;;;15.63;3.97;;;;;;;4.29;100.00;101064.78;5072373;28;20395;-35
2022/01/07 00:52:20;;;;;;;13.50;3.75;;;;;;;4.30;100.00;101071.97;5072402;28;20389;-34
2022/01/07 00:54:48;;;;;;;14.75;3.97;;;;;;;4.29;100.00;101059.25;5071977;28;20135;-36
2022/01/07 00:57:16;;;;;;;13.10;3.15;;;;;;;4.27;100.00;101053.97;5072126;28;20071;-37
2022/01/07 00:59:45;;;;;;;14.85;3.47;;;;;;;4.27;100.00;101055.91;5072633;28;20383;-35
2022/01/07 01:02:14;;;;;;;12.90;3.67;;;;;;;4.25;100.00;101031.28;5073126;28;20498;-32
2022/01/07 01:04:43;;;;;;;15.48;3.95;;;;;;;4.27;100.00;101042.91;5072588;28;20062;-31
2022/01/07 01:07:11;;;;;;;14.75;3.65;;;;;;;4.30;100.00;101039.66;5073283;28;20048;-28
2022/01/07 01:09:39;;;;;;;11.35;3.45;;;;;;;4.32;100.00;101026.44;5073008;28;20045;-33
2022/01/07 01:12:09;;;;;;;20.63;4.68;;;;;;;4.35;100.00;101041.66;5072311;28;20109;-36
2022/01/07 01:14:38;;;;;;;16.33;4.22;;;;;;;4.35;100.00;101016.81;5072664;28;20578;-35
2022/01/07 01:17:06;;;;;;;15.93;5.22;;;;;;;4.34;100.00;101018.72;5072258;28;20496;-35
2022/01/07 01:19:36;;;;;;;14.43;4.47;;;;;;;4.35;100.00;101025.94;5072259;28;20048;-33
2022/01/07 01:22:05;;;;;;;15.65;4.80;;;;;;;4.37;100.00;101007.19;5072707;28;20098;-34
2022/01/07 01:24:33;;;;;;;18.90;4.53;;;;;;;4.37;100.00;100998.06;5072202;28;20056;-35
2022/01/07 01:27:01;;;;;;;21.48;4.68;;;;;;;4.37;100.00;101007.19;5071929;28;20051;-36
2022/01/07 01:29:29;;;;;;;21.98;5.05;;;;;;;4.40;100.00;101012.16;5071918;28;20047;-34
2022/01/07 01:31:57;;;;;;;16.00;4.65;;;;;;;4.45;100.00;101000.34;5071395;28;20043;-33
2022/01/07 01:34:24;;;;;;;20.20;4.57;;;;;;;4.52;100.00;100989.97;5073135;28;20047;-37
2022/01/07 01:36:53;;;;;;;17.00;4.60;;;;;;;4.55;100.00;100992.22;5073013;28;20136;-39
2022/01/07 01:39:21;;;;;;;16.02;4.55;;;;;;;4.54;100.00;100990.53;5071200;28;20048;-31
2022/01/07 01:41:49;;;;;;;22.55;4.95;;;;;;;4.54;100.00;100967.59;5071400;28;20052;-32
2022/01/07 01:44:17;;;;;;;20.13;4.80;;;;;;;4.55;100.00;100972.03;5071167;28;20140;-32
2022/01/07 01:46:45;;;;;;;17.10;4.80;;;;;;;4.58;100.00;100960.47;5071246;28;20131;-35
2022/01/07 01:49:13;;;;;;;18.92;5.05;;;;;;;4.60;100.00;100959.09;5072111;28;20059;-35
2022/01/07 01:51:40;;;;;;;14.48;5.00;;;;;;;4.62;100.00;100964.38;5072218;28;20051;-33
2022/01/07 01:54:10;;;;;;;21.77;5.30;;;;;;;4.61;100.00;100944.19;5071224;28;20056;-36
2022/01/07 01:56:37;;;;;;;22.25;5.25;;;;;;;4.64;100.00;100945.59;5071892;28;20053;-33
2022/01/07 01:59:05;;;;;;;17.17;4.78;;;;;;;4.66;100.00;100941.50;5072190;28;20049;-32
2022/01/07 02:01:34;;;;;;;19.45;4.88;;;;;;;4.66;100.00;100932.38;5070523;28;20053;-38
2022/01/07 02:04:02;;;;;;;19.02;4.80;;;;;;;4.67;100.00;100934.88;5071920;28;20055;-33
2022/01/07 02:06:30;;;;;;;21.92;4.20;;;;;;;4.69;100.00;100940.97;5071904;28;20409;-35
2022/01/07 02:08:57;;;;;;;23.88;4.93;;;;;;;4.71;100.00;100918.63;5069505;28;20055;-36
2022/01/07 02:11:27;;;;;;;15.65;4.10;;;;;;;4.75;100.00;100928.06;5071211;28;20045;-38
2022/01/07 02:13:56;;;;;;;22.55;4.60;;;;;;;4.79;100.00;100919.00;5072019;28;20045;-40
2022/01/07 02:16:25;;;;;;;22.70;4.45;;;;;;;4.84;100.00;100918.19;5071102;28;20082;-35
2022/01/07 02:18:53;;;;;;;21.08;5.07;;;;;;;4.91;100.00;100912.47;5071912;28;20543;-37
2022/01/07 02:21:24;;;;;;;21.25;5.15;;;;;;;4.93;100.00;100907.53;5070633;28;20052;-36
2022/01/07 02:23:52;;;;;;;20.35;5.20;;;;;;;4.97;100.00;100906.75;5070723;28;20104;-36
2022/01/07 02:26:21;;;;;;;19.42;4.80;;;;;;;4.99;100.00;100898.19;5071606;28;20055;-32
2022/01/07 02:28:49;;;;;;;23.88;5.05;;;;;;;5.02;100.00;100895.72;5070828;28;20117;-31
2022/01/07 02:31:17;;;;;;;17.17;4.15;;;;;;;5.05;100.00;100886.91;5070941;28;20114;-33
2022/01/07 02:33:46;;;;;;;23.02;5.10;;;;;;;5.06;100.00;100888.56;5071237;28;20097;-34
2022/01/07 02:36:13;;;;;;;23.20;4.55;;;;;;;5.10;100.00;100884.19;5070318;28;20048;-39
2022/01/07 02:38:43;;;;;;;22.88;4.55;;;;;;;5.14;100.00;100877.03;5070968;28;20052;-36
2022/01/07 02:41:11;;;;;;;19.65;4.82;;;;;;;5.19;100.00;100877.09;5071300;28;20048;-40
2022/01/07 02:43:38;;;;;;;25.77;5.38;;;;;;;5.24;100.00;100870.75;5070734;28;20048;-35
2022/01/07 02:46:06;;;;;;;18.58;4.80;;;;;;;5.25;100.00;100858.59;5071508;28;20052;-34
2022/01/07 02:48:34;;;;;;;17.42;4.00;;;;;;;5.27;100.00;100866.63;5071072;28;20493;-40
2022/01/07 02:51:02;;;;;;;27.58;5.25;;;;;;;5.29;100.00;100859.72;5070991;28;20051;-37
2022/01/07 02:53:30;;;;;;;23.17;4.47;;;;;;;5.29;100.00;100867.19;5071260;28;20486;-40
2022/01/07 02:55:59;;;;;;;21.63;4.82;;;;;;;5.32;100.00;100883.28;5071418;28;20048;-33
2022/01/07 02:58:26;;;;;;;25.38;5.10;;;;;;;5.33;100.00;100868.34;5070313;28;20139;-33
2022/01/07 03:00:54;;;;;;;22.35;4.88;;;;;;;5.36;100.00;100863.13;5070516;28;20056;-38
2022/01/07 03:03:22;;;;;;;15.93;4.43;;;;;;;5.36;100.00;100857.59;5071249;28;20517;-35
2022/01/07 03:05:50;;;;;;;24.90;5.50;;;;;;;5.38;100.00;100852.63;5071239;28;20127;-36
2022/01/07 03:08:18;;;;;;;21.52;5.00;;;;;;;5.40;100.00;100850.41;5071135;28;20057;-34
2022/01/07 03:10:45;;;;;;;16.90;4.70;;;;;;;5.43;100.00;100835.19;5070302;28;20048;-37
2022/01/07 03:13:14;;;;;;;18.60;4.10;;;;;;;5.45;100.00;100844.06;5071083;28;20401;-33
2022/01/07 03:15:42;;;;;;;22.65;4.32;;;;;;;5.45;100.00;100853.22;5070895;28;20053;-35
2022/01/07 03:18:10;;;;;;;22.95;4.20;;;;;;;5.48;100.00;100847.16;5069973;28;20498;-37
2022/01/07 03:20:39;;;;;;;19.50;4.32;;;;;;;5.50;100.00;100836.66;5070860;28;20048;-36
2022/01/07 03:23:08;;;;;;;18.08;3.80;;;;;;;5.53;100.00;100833.34;5071645;28;20048;-33
2022/01/07 03:25:35;;;;;;;20.27;4.93;;;;;;;5.56;100.00;100834.75;5074071;28;20059;-33
2022/01/07 03:28:04;;;;;;;16.95;4.05;;;;;;;5.57;100.00;100828.13;5074656;28;20055;-33
2022/01/07 03:30:33;;;;;;;24.75;5.05;;;;;;;5.56;100.00;100820.09;5074774;28;20051;-32
2022/01/07 03:33:01;;;;;;;21.33;4.57;;;;;;;5.59;100.00;100820.38;5074211;28;20048;-33
2022/01/07 03:35:28;;;;;;;22.92;4.82;;;;;;;5.57;100.00;100805.97;5075068;28;20079;-37
2022/01/07 03:37:56;;;;;;;19.85;4.20;;;;;;;5.61;100.00;100801.56;5074919;28;20056;-42
2022/01/07 03:40:24;;;;;;;21.00;4.38;;;;;;;5.62;100.00;100808.75;5073902;28;20052;-35
2022/01/07 03:42:52;;;;;;;19.67;4.47;;;;;;;5.61;100.00;100807.09;5074921;28;20056;-33
2022/01/07 03:45:21;;;;;;;21.92;4.80;;;;;;;5.61;100.00;100797.94;5074062;28;20391;-34
2022/01/07 03:47:51;;;;;;;20.42;4.07;;;;;;;5.60;100.00;100799.88;5073755;28;20045;-32
2022/01/07 03:50:21;;;;;;;16.08;3.45;;;;;;;5.60;100.00;100788.81;5074465;28;20093;-37
2022/01/07 03:52:49;;;;;;;20.63;3.50;;;;;;;5.60;100.00;100788.81;5073872;28;20044;-33
2022/01/07 03:55:20;;;;;;;18.95;4.00;;;;;;;5.62;100.00;100781.06;5074553;28;20175;-35
2022/01/07 03:57:48;;;;;;;20.27;3.95;;;;;;;5.64;100.00;100778.03;5074543;28;20052;-34
2022/01/07 04:00:18;;;;;;;23.25;5.85;;;;;;;5.70;100.00;100788.03;5073077;28;20054;-36
2022/01/07 04:02:47;;;;;;;15.13;3.58;;;;;;;5.71;100.00;100787.78;5073847;28;20051;-34
2022/01/07 04:05:20;;;;;;;25.75;4.43;;;;;;;5.72;100.00;100781.16;5074909;28;20045;-31
2022/01/07 04:07:48;;;;;;;26.25;5.05;;;;;;;5.74;100.00;100791.97;5073299;28;20485;-37
2022/01/07 04:10:16;;;;;;;21.30;4.20;;;;;;;5.74;100.00;100791.97;5074415;28;20044;-34
2022/01/07 04:12:44;;;;;;;18.35;4.30;;;;;;;5.75;100.00;100780.63;5074274;28;20075;-36
2022/01/07 04:15:12;;;;;;;20.45;5.10;;;;;;;5.74;100.00;100791.97;5073390;28;20559;-33
2022/01/07 04:17:42;;;;;;;16.00;4.15;;;;;;;5.72;100.00;100792.22;5074095;28;20056;-38
2022/01/07 04:20:12;;;;;;;19.23;4.57;;;;;;;5.72;100.00;100774.78;5073955;28;20047;-35
2022/01/07 04:22:42;;;;;;;15.80;4.30;;;;;;;5.72;100.00;100775.59;5072968;28;20052;-35
2022/01/07 04:25:17;;;;;;;17.33;3.80;;;;;;;5.77;100.00;100783.13;5073715;28;20052;-39
2022/01/07 04:27:46;;;;;;;21.77;4.47;;;;;;;5.83;100.00;100779.25;5073860;28;20520;-35
2022/01/07 04:30:14;;;;;;;24.77;4.72;;;;;;;5.86;100.00;100775.94;5073278;28;20066;-32
2022/01/07 04:32:43;;;;;;;24.95;5.18;;;;;;;5.87;100.00;100775.66;5072449;28;20056;-34
2022/01/07 04:35:12;;;;;;;23.92;5.03;;;;;;;5.89;100.00;100772.66;5071238;28;20369;-33
2022/01/07 04:37:42;;;;;;;32.90;4.82;;;;;;;5.90;100.00;100763.25;5073749;28;20044;-30
2022/01/07 04:40:12;;;;;;;19.80;4.47;;;;;;;5.96;100.00;100776.03;5073253;28;20045;-36
2022/01/07 04:42:40;;;;;;;19.48;3.83;;;;;;;5.98;100.00;100765.53;5071448;28;20045;-36
2022/01/07 04:45:09;;;;;;;23.45;5.03;;;;;;;5.99;100.00;100774.66;5073022;28;20045;-37
2022/01/07 04:47:37;;;;;;;19.75;3.95;;;;;;;6.03;100.00;100764.69;5073603;28;20049;-36
2022/01/07 04:50:08;;;;;;;22.80;4.05;;;;;;;6.04;100.00;100781.03;5072076;28;20056;-32
2022/01/07 04:52:35;;;;;;;18.38;3.38;;;;;;;6.04;100.00;100764.41;5073335;28;20040;-41
2022/01/07 04:55:06;;;;;;;18.25;3.70;;;;;;;6.07;100.00;100771.34;5073008;28;20520;-34
2022/01/07 04:57:34;;;;;;;20.20;3.90;;;;;;;6.08;100.00;100767.47;5071812;28;20485;-35
2022/01/07 05:00:02;;;;;;;21.20;3.78;;;;;;;6.14;100.00;100772.78;5072661;28;20043;-35
2022/01/07 05:02:29;;;;;;;18.05;2.90;;;;;;;6.15;100.00;100793.00;5071669;28;20048;-34
2022/01/07 05:04:57;;;;;;;20.63;3.40;;;;;;;6.18;100.00;100779.44;5072182;28;20536;-34
2022/01/07 05:07:25;;;;;;;26.02;3.42;;;;;;;6.23;100.00;100781.38;5072507;28;20053;-40
2022/01/07 05:09:53;;;;;;;28.77;3.38;;;;;;;6.26;100.00;100788.31;5072602;28;20044;-35
2022/01/07 05:12:22;;;;;;;22.75;3.42;;;;;;;6.32;100.00;100790.84;5071907;28;20048;-34
2022/01/07 05:14:49;;;;;;;19.25;3.15;;;;;;;6.36;100.00;100788.34;5072811;28;20127;-40
2022/01/07 05:17:17;;;;;;;14.95;2.13;;;;;;;6.34;100.00;100788.63;5072535;28;20044;-33
2022/01/07 05:19:45;;;;;;;18.55;2.35;;;;;;;6.34;100.00;100782.25;5072834;28;20052;-34
2022/01/07 05:22:12;;;;;;;16.75;2.33;;;;;;;6.31;100.00;100789.16;5072245;28;20508;-31
2022/01/07 05:24:40;;;;;;;16.58;2.78;;;;;;;6.31;100.00;100778.09;5071769;28;20053;-34
2022/01/07 05:27:08;;;;;;;17.02;2.75;;;;;;;6.29;100.00;100783.06;5072293;28;20448;-40
2022/01/07 05:29:37;;;;;;;12.25;2.03;;;;;;;6.29;100.00;100785.00;5072840;28;20477;-34
2022/01/07 05:32:07;;;;;;;14.18;2.33;;;;;;;6.27;100.00;100776.97;5071400;28;20486;-29
2022/01/07 05:34:35;;;;;;;19.55;2.42;;;;;;;6.26;100.00;100778.06;5072699;28;20053;-31
2022/01/07 05:37:03;;;;;;;15.25;2.17;;;;;;;6.25;100.00;100795.78;5072070;28;20079;-33
2022/01/07 05:39:31;;;;;;;14.27;2.30;;;;;;;6.22;100.00;100782.47;5071671;28;20041;-32
2022/01/07 05:41:59;;;;;;;14.30;2.42;;;;;;;6.21;100.00;100780.81;5072375;28;20049;-37
2022/01/07 05:44:27;;;;;;;15.18;2.03;;;;;;;6.20;100.00;100793.00;5072365;28;20045;-35
2022/01/07 05:46:56;;;;;;;12.77;2.38;;;;;;;6.19;100.00;100792.16;5071347;28;20040;-40
2022/01/07 05:49:24;;;;;;;12.77;2.00;;;;;;;6.18;100.00;100784.97;5072087;28;20067;-33
2022/01/07 05:51:52;;;;;;;13.52;1.92;;;;;;;6.20;100.00;100788.28;5071777;28;20482;-31
2022/01/07 05:54:20;;;;;;;19.35;2.47;;;;;;;6.21;100.00;100775.25;5071005;28;20044;-37
2022/01/07 05:56:47;;;;;;;13.88;2.30;;;;;;;6.21;100.00;100783.56;5072174;28;20123;-37
2022/01/07 05:59:15;;;;;;;15.73;1.92;;;;;;;6.20;100.00;100781.91;5071172;28;20062;-40
2022/01/07 06:01:43;;;;;;;14.38;2.25;;;;;;;6.20;100.00;100790.22;5072056;28;20513;-34
2022/01/07 06:04:12;;;;;;;14.02;2.30;;;;;;;6.22;100.00;100788.00;5071625;28;20564;-34
2022/01/07 06:06:40;;;;;;;12.85;2.13;;;;;;;6.22;100.00;100788.84;5053103;28;20055;-34
2022/01/07 06:09:08;;;;;;;14.40;2.38;;;;;;;6.22;100.00;100771.41;5071966;28;20054;-37
2022/01/07 06:11:35;;;;;;;11.50;1.88;;;;;;;6.21;100.00;100772.50;5071884;28;20055;-30
2022/01/07 06:14:03;;;;;;;16.38;2.20;;;;;;;6.18;100.00;100764.75;5070649;28;20052;-33
2022/01/07 06:16:31;;;;;;;14.55;2.08;;;;;;;6.15;100.00;100784.69;5072230;28;20056;-35
2022/01/07 06:18:58;;;;;;;18.83;1.98;;;;;;;6.14;100.00;100769.16;5071170;28;20041;-41
2022/01/07 06:21:28;;;;;;;15.65;2.15;;;;;;;6.12;100.00;100774.97;5071135;28;20409;-42
2022/01/07 06:23:56;;;;;;;17.60;2.17;;;;;;;6.10;100.00;100770.81;5070772;28;20047;-36
2022/01/07 06:26:23;;;;;;;13.43;2.72;;;;;;;6.09;100.00;100780.22;5069357;28;20040;-39
2022/01/07 06:28:51;;;;;;;12.10;1.67;;;;;;;6.11;100.00;100775.25;5068830;28;20049;-33
2022/01/07 06:31:19;;;;;;;15.38;1.83;;;;;;;6.10;100.00;100781.91;5071053;28;20128;-34
2022/01/07 06:33:46;;;;;;;15.20;1.83;;;;;;;6.09;100.00;100780.22;5070734;28;20090;-35
2022/01/07 06:36:14;;;;;;;15.63;2.05;;;;;;;6.09;100.00;100760.84;5069937;28;20048;-33
2022/01/07 06:38:43;;;;;;;16.48;1.95;;;;;;;6.09;100.00;100764.44;5070404;28;20048;-36
2022/01/07 06:41:11;;;;;;;13.45;1.70;;;;;;;6.07;100.00;100765.81;5070020;28;20429;-32
2022/01/07 06:43:39;;;;;;;15.75;3.05;;;;;;;6.06;100.00;100769.69;5067188;28;20051;-36
2022/01/07 06:46:08;;;;;;;10.85;1.73;;;;;;;6.02;100.00;100776.88;5069380;28;20039;-32
2022/01/07 06:48:36;;;;;;;14.00;1.95;;;;;;;6.00;100.00;100762.44;5068792;28;20052;-37
2022/01/07 06:51:04;;;;;;;15.70;2.15;;;;;;;6.00;100.00;100757.75;5069751;28;20118;-32
2022/01/07 06:53:32;;;;;;;8.73;1.52;;;;;;;6.00;100.00;100759.69;5069799;28;20056;-40
2022/01/07 06:56:03;;;;;;;13.75;2.38;;;;;;;6.02;100.00;100768.56;5068870;28;20441;-37
2022/01/07 06:58:30;;;;;;;16.73;2.03;;;;;;;6.04;100.00;100763.56;5069345;28;20048;-34
2022/01/07 07:00:58;;;;;;;12.57;1.83;;;;;;;6.07;100.00;100774.13;5069868;28;20057;-37
2022/01/07 07:03:26;;;;;;;10.95;1.80;;;;;;;6.05;100.00;100768.84;5068388;28;20127;-31
2022/01/07 07:05:54;;;;;;;15.57;1.75;;;;;;;6.07;100.00;100776.88;5069525;28;20059;-34
2022/01/07 07:08:22;;;;;;;11.05;1.90;;;;;;;6.07;100.00;100772.19;5069682;28;20501;-31
2022/01/07 07:10:49;;;;;;;17.55;2.30;;;;;;;6.07;100.00;100780.50;5068663;28;20040;-33
2022/01/07 07:13:18;;;;;;;20.58;2.28;;;;;;;6.07;100.00;100776.88;5069886;28;20489;-35
2022/01/07 07:15:46;;;;;;;16.42;2.22;;;;;;;6.09;100.00;100781.06;5069382;28;20037;-36
2022/01/07 07:18:14;;;;;;;7.00;1.40;;;;;;;6.09;100.00;100780.22;5069274;28;20070;-32
2022/01/07 07:20:41;;;;;;;13.40;1.40;;;;;;;6.09;100.00;100780.22;5069005;28;20048;-36
2022/01/07 07:23:12;;;;;;;15.98;2.22;;;;;;;6.07;100.00;100779.66;5070045;28;20041;-40
2022/01/07 07:25:39;;;;;;;9.68;1.73;;;;;;;6.05;100.00;100802.09;5067934;28;20055;-30
2022/01/07 07:28:07;;;;;;;8.77;1.42;;;;;;;6.04;100.00;100783.81;5069559;28;20414;-36
2022/01/07 07:30:39;;;;;;;11.23;1.60;;;;;;;6.01;100.00;100789.88;5069222;28;20052;-34
2022/01/07 07:33:30;;;;;;;12.32;1.65;;;;;;;6.00;100.00;100784.59;5069614;28;20040;-36
2022/01/07 07:38:46;;;;;;;14.38;2.22;;;;;;;5.97;100.00;100787.94;5060252;28;20509;-32
2022/01/07 07:41:14;;;;;;;12.48;1.80;;;;;;;5.96;100.00;100787.13;5068719;28;20041;-33
2022/01/07 07:43:44;;;;;;;11.68;2.05;;;;;;;5.99;100.00;100792.13;5066921;28;20057;-33
2022/01/07 07:46:14;;;;;;;14.30;2.55;;;;;;;6.03;100.00;100795.16;5067973;28;20919;-39
2022/01/07 07:48:42;;;;;;;10.65;1.70;;;;;;;6.06;100.00;100787.13;5068637;28;20044;-38
2022/01/07 07:51:09;;;;;;;10.35;1.73;;;;;;;6.09;100.00;100792.13;5068319;28;20404;-39
2022/01/07 07:53:37;;;;;;;15.52;1.85;;;;;;;6.12;100.00;100796.31;5067841;28;20045;-31
2022/01/07 07:56:05;;;;;;;11.40;1.73;;;;;;;6.13;100.00;100789.66;5068112;28;20052;-36
2022/01/07 07:58:33;;;;;;;14.63;2.58;;;;;;;6.12;100.00;100796.31;5067739;28;20498;-39
2022/01/07 08:01:02;;;;;;;12.05;2.00;;;;;;;6.15;100.00;100795.78;5067434;28;20048;-39
2022/01/07 08:03:31;;;;;;;16.25;2.33;;;;;;;6.20;100.00;100793.00;5069154;28;20052;-37
2022/01/07 08:05:59;;;;;;;13.80;2.00;;;;;;;6.20;100.00;100798.53;5068272;28;20048;-33
2022/01/07 08:08:28;;;;;;;13.90;2.03;;;;;;;6.20;100.00;100798.53;5066258;28;20421;-32
2022/01/07 08:10:59;;;;;;;17.90;2.40;;;;;;;6.19;100.00;100803.25;5072076;28;20040;-34
2022/01/07 08:13:30;;;;;;;12.18;1.80;;;;;;;6.21;100.00;100800.19;5071939;28;20119;-34
2022/01/07 08:15:58;;;;;;;13.60;2.00;;;;;;;6.23;100.00;100798.00;5072780;28;20052;-34
2022/01/07 08:18:26;;;;;;;12.93;2.40;;;;;;;6.28;100.00;100805.50;5071526;28;20049;-35
2022/01/07 08:20:56;;;;;;;17.33;2.17;;;;;;;6.30;100.00;100804.13;5072659;28;20041;-34
2022/01/07 08:23:24;;;;;;;11.00;1.70;;;;;;;6.28;100.00;100806.34;5072052;28;20512;-37
2022/01/07 08:25:52;;;;;;;14.13;1.77;;;;;;;6.27;100.00;100798.28;5072893;28;20045;-39
2022/01/07 08:28:23;;;;;;;18.30;3.13;;;;;;;6.22;100.00;100802.69;5070292;28;20055;-35
2022/01/07 08:31:23;;;;;;;17.27;2.20;;;;;;;6.22;100.00;100801.88;5072025;28;20064;-32
2022/01/07 08:36:36;;;;;;;13.52;1.90;;;;;;;6.16;100.00;100797.44;5072411;28;20084;-35
2022/01/07 08:39:07;;;;;;;17.55;2.60;;;;;;;6.17;100.00;100801.88;5071624;28;20494;-37
2022/01/07 08:41:36;;;;;;;15.82;2.30;;;;;;;6.17;100.00;100805.47;5071714;28;20055;-34
2022/01/07 08:44:06;;;;;;;14.93;1.90;;;;;;;6.19;100.00;100808.78;5069668;28;20052;-36
2022/01/07 08:46:35;;;;;;;14.57;2.20;;;;;;;6.23;100.00;100803.53;5072246;28;20055;-36
2022/01/07 08:49:04;;;;;;;14.80;2.25;;;;;;;6.25;100.00;100811.59;5070854;28;20131;-37
2022/01/07 08:51:32;;;;;;;12.48;2.50;;;;;;;6.26;100.00;100808.53;5072210;28;20449;-34
2022/01/07 08:54:01;;;;;;;12.65;1.90;;;;;;;6.31;100.00;100803.03;5071490;28;20044;-38
2022/01/07 08:56:29;;;;;;;14.52;1.88;;;;;;;6.36;100.00;100808.59;5071408;28;20060;-37
2022/01/07 08:58:58;;;;;;;13.80;1.77;;;;;;;6.44;100.00;100813.59;5071350;28;20052;-36
2022/01/07 09:01:28;;;;;;;12.73;2.30;;;;;;;6.45;100.00;100804.16;5072206;28;20534;-41
2022/01/07 09:03:56;;;;;;;9.77;1.75;;;;;;;6.45;100.00;100809.72;5070810;28;20041;-31
2022/01/07 09:06:24;;;;;;;10.10;1.65;;;;;;;6.48;100.00;100806.38;5071651;28;20507;-32
2022/01/07 09:08:53;;;;;;;11.82;2.20;;;;;;;6.48;100.00;100800.84;5071430;28;20053;-31
2022/01/07 09:11:22;;;;;;;11.13;1.83;;;;;;;6.54;100.00;100808.09;5070907;28;20045;-37
2022/01/07 09:13:52;;;;;;;9.98;1.65;;;;;;;6.63;100.00;100810.28;5069977;28;20413;-35
2022/01/07 09:16:23;;;;;;;15.27;2.08;;;;;;;6.72;99.44;100809.50;5070841;28;20413;-36
2022/01/07 09:18:51;;;;;;;10.75;1.85;;;;;;;6.85;98.80;100808.94;5070855;28;20048;-35
2022/01/07 09:21:19;;;;;;;10.82;1.65;;;;;;;7.08;98.96;100812.28;5070408;28;20044;-35
2022/01/07 09:23:47;;;;;;;7.63;1.90;;;;;;;7.23;97.49;100813.13;5069772;28;20457;-39
2022/01/07 09:26:15;;;;;;;12.77;2.00;;;;;;;7.23;95.58;100821.44;5070989;28;20060;-37
2022/01/07 09:28:44;;;;;;;10.65;1.65;;;;;;;7.19;94.83;100817.56;5071071;28;20482;-34
2022/01/07 09:31:13;;;;;;;9.95;1.60;;;;;;;7.33;95.01;100815.06;5070596;28;20466;-37
2022/01/07 09:33:42;;;;;;;13.60;2.05;;;;;;;7.54;93.86;100816.72;5071211;28;20672;-37
2022/01/07 09:36:29;;;;;;;10.40;1.83;;;;;;;7.80;93.50;100817.47;5069192;28;20044;-35
2022/01/07 09:38:57;;;;;;;15.60;2.00;;;;;;;8.04;94.18;100822.41;5069990;28;20045;-37
2022/01/07 09:41:25;;;;;;;10.00;1.90;;;;;;;8.09;91.22;100819.63;5070912;28;20497;-36
2022/01/07 09:43:54;;;;;;;10.57;1.83;;;;;;;7.94;90.76;100813.00;5051039;28;20060;-38
2022/01/07 09:46:23;;;;;;;12.63;2.00;;;;;;;7.80;91.26;100823.03;5070152;28;20448;-37
2022/01/07 09:48:51;;;;;;;11.50;1.50;;;;;;;7.66;91.35;100807.22;5070855;28;20480;-41
2022/01/07 09:51:19;;;;;;;10.10;2.30;;;;;;;7.46;90.64;100806.16;5070038;28;20044;-35
2022/01/07 09:53:47;;;;;;;11.70;1.67;;;;;;;7.34;90.88;100810.34;5071316;28;20056;-40
2022/01/07 09:56:17;;;;;;;13.13;1.83;;;;;;;7.23;90.98;100793.69;5070749;28;20123;-36
2022/01/07 09:58:45;;;;;;;8.35;1.20;;;;;;;7.26;91.64;100793.13;5070081;28;20443;-33
2022/01/07 10:01:16;;;;;;;6.55;1.60;;;;;;;7.41;91.47;100786.72;5070275;28;20477;-39
2022/01/07 10:03:45;;;;;;;11.85;1.80;;;;;;;7.47;91.13;100793.94;5070620;28;20056;-39
2022/01/07 10:06:18;;;;;;;10.13;1.52;;;;;;;7.38;90.76;100792.03;5069260;28;20135;-42
2022/01/07 10:08:58;;;;;;;10.70;1.90;;;;;;;7.25;91.74;100810.91;5070710;28;20520;-39
2022/01/07 10:11:26;;;;;;;12.00;2.05;;;;;;;7.05;91.88;100802.56;5070258;28;20049;-34
2022/01/07 10:14:15;;;;;;;7.45;1.38;;;;;;;6.83;93.16;100797.28;5069886;28;20067;-36
2022/01/07 10:16:52;;;;;;;12.57;1.80;;;;;;;6.63;94.51;100793.66;5070060;28;20055;-37
2022/01/07 10:19:31;;;;;;;11.77;2.13;;;;;;;6.48;95.91;100788.94;5070542;28;20060;-36
2022/01/07 10:22:00;;;;;;;10.48;1.80;;;;;;;6.39;96.87;100785.88;5069633;28;20050;-38
2022/01/07 10:24:28;;;;;;;10.70;1.42;;;;;;;6.38;99.06;100788.91;5070253;28;20055;-36
2022/01/07 10:27:09;;;;;;;12.20;1.77;;;;;;;6.38;98.56;100795.28;5068249;28;20056;-38
2022/01/07 10:29:41;;;;;;;13.23;1.95;;;;;;;6.38;99.02;100794.47;5069970;28;20053;-31
2022/01/07 10:32:28;;;;;;;8.20;1.42;;;;;;;6.32;98.72;100799.16;5069285;28;20056;-34
2022/01/07 10:35:08;;;;;;;6.28;1.27;;;;;;;6.24;98.29;100805.22;5069639;28;20045;-37
2022/01/07 10:37:45;;;;;;;10.52;1.38;;;;;;;6.26;98.93;100802.16;5069577;28;20056;-35
2022/01/07 10:40:28;;;;;;;8.13;1.40;;;;;;;6.26;97.95;100803.00;5069589;28;20052;-35
2022/01/07 10:43:07;;;;;;;10.25;1.40;;;;;;;6.26;98.70;100807.72;5069059;28;20049;-35
2022/01/07 10:45:35;;;;;;;12.15;1.60;;;;;;;6.41;100.00;100800.25;5070097;28;20048;-37
2022/01/07 10:48:06;;;;;;;9.70;1.70;;;;;;;6.66;100.00;100793.94;5069045;28;20143;-37
2022/01/07 10:50:39;;;;;;;10.65;1.40;;;;;;;6.85;100.00;100797.03;5070076;28;20056;-39
2022/01/07 10:53:19;;;;;;;14.20;2.25;;;;;;;7.16;100.00;100798.72;5069218;28;20127;-35
2022/01/07 10:55:59;;;;;;;9.85;1.40;;;;;;;7.49;100.00;100796.44;5069299;28;20048;-37
2022/01/07 10:58:28;;;;;;;15.45;2.00;;;;;;;7.63;97.99;100794.75;5069218;28;20516;-31
2022/01/07 11:00:56;;;;;;;11.02;2.20;;;;;;;7.63;96.02;100772.53;5070282;28;20428;-33
2022/01/07 11:03:25;;;;;;;11.82;2.40;;;;;;;7.61;96.28;100778.34;5068562;28;20166;-37
2022/01/07 11:05:53;;;;;;;9.93;1.50;;;;;;;7.61;97.04;100785.84;5069695;28;20436;-38
2022/01/07 11:08:21;;;;;;;13.68;1.80;;;;;;;7.57;97.13;100787.56;5069456;28;20040;-42
2022/01/07 11:10:49;;;;;;;17.13;2.10;;;;;;;7.55;98.76;100787.00;5068604;28;20063;-37
2022/01/07 11:13:18;;;;;;;8.48;1.30;;;;;;;7.48;98.52;100780.91;5069899;28;20044;-41
2022/01/07 11:15:46;;;;;;;10.25;1.70;;;;;;;7.37;97.89;100782.88;5069145;28;20154;-34
2022/01/07 11:18:13;;;;;;;9.82;1.40;;;;;;;7.33;98.31;100787.31;5070061;28;20045;-38
2022/01/07 11:20:44;;;;;;;9.85;1.73;;;;;;;7.35;98.18;100784.25;5070638;28;20049;-35
2022/01/07 11:23:12;;;;;;;12.65;1.85;;;;;;;7.34;96.24;100786.19;5070349;28;20051;-36
2022/01/07 11:25:40;;;;;;;11.77;1.95;;;;;;;7.33;95.65;100778.97;5071011;28;20498;-38
2022/01/07 11:28:17;;;;;;;10.45;1.60;;;;;;;7.40;96.92;100789.78;5070375;28;20077;-35
2022/01/07 11:30:47;;;;;;;9.82;1.60;;;;;;;7.48;96.57;100778.94;5066520;28;20059;-38
2022/01/07 11:33:18;;;;;;;11.82;1.90;;;;;;;7.45;95.10;100790.63;5070589;28;20048;-35